Sylvester, Texas
Current Conditions -  °F | °C
As of 5:15 AM on Sunday 23 Nov 2014 (Local Time) from KSWW Reporting Station
Clear Clear  
Wind Chill: 44°   Ceiling: Unl
Heat Index: 49°   Visibility: 10mi
Dew Point: 41°   Wind: 15mph
Humidity: 73%   Direction: 210°SSW
Pressure: 29.63"   Gusts: NA
Location:  32.72°N, 100.26°W
Report Text: KSWW 231115Z AUTO 21013KT 10SM CLR 10/05 A2963 RMK AO2 T00960050
Loading
Personal Weather Stations






























Interactive Weather Map New forecast layout! Learn more

10-Day Weather Forecast

Advertisements
Track Severe Weather on mobile